Terminal Aerodrome Forecast
Issued by NWS Sioux Falls, SD

Home | Current Version | Previous Version | Graphics & Text | Print | Product List | Glossary Off
Versions: 1 2 3 4 5 6 7 8 9 10 11 12 13 14 15 16

000
FTUS43 KFSD 112331
TAFHON
TAF
KHON 112331Z 1200/1224 35014KT P6SM BKN090
     FM120200 34011KT P6SM SCT120
     FM120500 28004KT P6SM BKN025
     FM121300 26005KT P6SM BKN035
     FM121900 28007KT P6SM SCT090
     FM122300 24006KT P6SM SCT200=

USA.gov is the U.S. government's official web portal to all federal, state and local government web resources and services.